createdAt,value
2019-01-25T00:01:37.208Z,101802.29
2019-01-25T00:04:09.280Z,101805.87
2019-01-25T00:06:41.016Z,101804.18
2019-01-25T00:09:12.723Z,101810.12
2019-01-25T00:11:44.464Z,101808.98
2019-01-25T00:14:16.244Z,101808.75
2019-01-25T00:16:47.978Z,101814.85
2019-01-25T00:19:19.676Z,101821.92
2019-01-25T00:21:51.399Z,101820.84
2019-01-25T00:24:23.127Z,101817.70
2019-01-25T00:26:54.912Z,101818.73
2019-01-25T00:29:26.691Z,101814.00
2019-01-25T00:31:58.410Z,101814.64
2019-01-25T00:34:30.124Z,101814.64
2019-01-25T00:37:01.840Z,101810.95
2019-01-25T00:39:33.573Z,101810.38
2019-01-25T00:42:05.288Z,101807.25
2019-01-25T00:44:37.092Z,101812.87
2019-01-25T00:47:08.983Z,101808.97
2019-01-25T00:49:40.987Z,101813.80
2019-01-25T00:52:12.696Z,101804.62
2019-01-25T00:54:44.507Z,101810.25
2019-01-25T00:57:16.524Z,101810.97
2019-01-25T00:59:48.251Z,101814.27
2019-01-25T01:02:19.972Z,101808.00
2019-01-25T01:04:51.684Z,101804.14
2019-01-25T01:07:23.412Z,101806.23
2019-01-25T01:09:55.121Z,101803.91
2019-01-25T01:12:26.858Z,101808.00
2019-01-25T01:14:58.560Z,101807.52
2019-01-25T01:17:30.364Z,101810.33
2019-01-25T01:20:02.066Z,101812.26
2019-01-25T01:22:33.803Z,101810.89
2019-01-25T01:25:06.347Z,101812.34
2019-01-25T01:27:38.138Z,101810.09
2019-01-25T01:30:17.239Z,101811.13
2019-01-25T01:32:49.233Z,101807.77
2019-01-25T01:35:20.980Z,101808.65
2019-01-25T01:37:53.332Z,101810.25
2019-01-25T01:40:25.291Z,101805.76
2019-01-25T01:42:57.009Z,101800.42
2019-01-25T01:45:29.563Z,101797.77
2019-01-25T01:48:01.509Z,101797.13
2019-01-25T01:50:33.289Z,101794.08
2019-01-25T01:53:05.146Z,101797.20
2019-01-25T01:55:37.619Z,101788.12
2019-01-25T01:58:09.404Z,101799.84
2019-01-25T02:00:41.117Z,101796.83
2019-01-25T02:03:13.024Z,101793.61
2019-01-25T02:05:44.738Z,101793.13
2019-01-25T02:08:16.456Z,101795.29
2019-01-25T02:10:48.165Z,101793.48
2019-01-25T02:13:19.886Z,101791.08
2019-01-25T02:15:51.600Z,101796.09
2019-01-25T02:18:23.329Z,101793.30
2019-01-25T02:20:55.319Z,101791.02
2019-01-25T02:23:27.042Z,101789.09
2019-01-25T02:25:58.771Z,101790.53
2019-01-25T02:28:30.476Z,101785.07
2019-01-25T02:31:02.196Z,101779.28
2019-01-25T02:33:34.214Z,101776.19
2019-01-25T02:36:06.586Z,101778.67
2019-01-25T02:38:38.311Z,101773.29
2019-01-25T02:41:10.036Z,101775.38
2019-01-25T02:43:41.745Z,101774.81
2019-01-25T02:46:13.470Z,101778.42
2019-01-25T02:48:45.174Z,101778.10
2019-01-25T02:51:16.949Z,101780.52
2019-01-25T02:53:48.693Z,101780.67
2019-01-25T02:56:20.408Z,101781.59
2019-01-25T02:58:52.128Z,101779.34
2019-01-25T03:01:23.857Z,101778.05
2019-01-25T03:03:55.931Z,101770.18
2019-01-25T03:06:27.720Z,101766.80
2019-01-25T03:08:59.434Z,101762.47
2019-01-25T03:11:31.197Z,101764.28
2019-01-25T03:14:02.917Z,101768.78
2019-01-25T03:16:34.648Z,101767.82
2019-01-25T03:19:06.369Z,101764.93
2019-01-25T03:21:38.085Z,101767.66
2019-01-25T03:24:09.821Z,101770.55
2019-01-25T03:26:41.534Z,101771.03
2019-01-25T03:29:13.217Z,101769.27
2019-01-25T03:31:44.910Z,101766.69
2019-01-25T03:34:16.609Z,101766.53
2019-01-25T03:36:48.328Z,101767.89
2019-01-25T03:39:20.041Z,101767.60
2019-01-25T03:41:51.759Z,101768.47
2019-01-25T03:44:23.458Z,101768.19
2019-01-25T03:46:55.190Z,101770.19
2019-01-25T03:49:26.871Z,101765.28
2019-01-25T03:51:58.558Z,101766.57
2019-01-25T03:54:30.307Z,101763.20
2019-01-25T03:57:01.958Z,101762.52
2019-01-25T03:59:33.682Z,101771.92
2019-01-25T04:02:05.372Z,101768.78
2019-01-25T04:04:37.417Z,101769.06
2019-01-25T04:07:09.119Z,101774.68
2019-01-25T04:09:40.837Z,101777.41
2019-01-25T04:12:12.569Z,101766.55
2019-01-25T04:14:44.256Z,101768.48
2019-01-25T04:17:15.932Z,101771.36
2019-01-25T04:19:47.635Z,101770.33
2019-01-25T04:22:19.412Z,101766.30
2019-01-25T04:24:51.178Z,101768.35
2019-01-25T04:27:23.234Z,101765.37
2019-01-25T04:29:55.020Z,101763.76
2019-01-25T04:32:26.739Z,101754.81
2019-01-25T04:34:58.455Z,101765.19
2019-01-25T04:37:30.306Z,101761.90
2019-01-25T04:40:02.460Z,101768.01
2019-01-25T04:42:34.507Z,101771.05
2019-01-25T04:45:10.891Z,101771.77
2019-01-25T04:47:42.788Z,101776.66
2019-01-25T04:50:25.210Z,101773.97
2019-01-25T04:52:57.004Z,101771.88
2019-01-25T04:55:32.798Z,101769.94
2019-01-25T04:58:09.295Z,101776.77
2019-01-25T05:00:41.291Z,101769.55
2019-01-25T05:03:13.045Z,101763.73
2019-01-25T05:05:44.810Z,101766.47
2019-01-25T05:08:19.736Z,101769.27
2019-01-25T05:10:52.137Z,101768.31
2019-01-25T05:13:24.208Z,101778.20
2019-01-25T05:15:55.910Z,101783.45
2019-01-25T05:18:27.581Z,101791.41
2019-01-25T05:20:59.362Z,101784.97
2019-01-25T05:23:31.445Z,101783.59
2019-01-25T05:26:03.472Z,101789.39
2019-01-25T05:28:36.736Z,101789.31
2019-01-25T05:31:08.883Z,101790.36
2019-01-25T05:33:41.837Z,101792.45
2019-01-25T05:36:13.883Z,101793.98
2019-01-25T05:38:47.049Z,101792.20
2019-01-25T05:41:19.063Z,101799.53
2019-01-25T05:43:50.740Z,101796.97
2019-01-25T05:46:23.506Z,101794.16
2019-01-25T05:48:55.653Z,101802.19
2019-01-25T05:51:33.630Z,101801.39
2019-01-25T05:54:00.817Z,101801.21
2019-01-25T05:56:32.895Z,101797.03
2019-01-25T05:59:04.949Z,101798.16
2019-01-25T06:01:38.562Z,101793.50
2019-01-25T06:04:10.713Z,101790.69
2019-01-25T06:06:42.679Z,101792.86
2019-01-25T06:09:20.495Z,101785.94
2019-01-25T06:11:52.257Z,101784.75
2019-01-25T06:14:23.938Z,101786.00
2019-01-25T06:16:55.638Z,101779.97
2019-01-25T06:19:28.970Z,101785.03
2019-01-25T06:22:00.917Z,101784.22
2019-01-25T06:24:32.606Z,101779.88
2019-01-25T06:27:04.358Z,101782.17
2019-01-25T06:29:36.405Z,101783.91
2019-01-25T06:32:08.092Z,101779.28
2019-01-25T06:34:39.800Z,101779.77
2019-01-25T06:37:11.481Z,101780.25
2019-01-25T06:39:43.156Z,101780.73
2019-01-25T06:42:14.896Z,101779.52
2019-01-25T06:44:46.954Z,101774.85
2019-01-25T06:47:18.803Z,101774.22
2019-01-25T06:49:50.496Z,101784.67
2019-01-25T06:52:22.177Z,101778.92
2019-01-25T06:54:53.869Z,101774.82
2019-01-25T06:57:27.493Z,101772.42
2019-01-25T06:59:59.201Z,101776.84
2019-01-25T07:02:31.234Z,101777.73
2019-01-25T07:05:02.944Z,101772.77
2019-01-25T07:07:35.311Z,101770.62
2019-01-25T07:10:11.906Z,101763.41
2019-01-25T07:12:43.592Z,101767.03
2019-01-25T07:15:16.948Z,101758.91
2019-01-25T07:17:48.694Z,101767.38
2019-01-25T07:20:20.404Z,101762.27
2019-01-25T07:22:52.780Z,101757.58
2019-01-25T07:25:24.478Z,101756.69
2019-01-25T07:27:56.162Z,101754.88
2019-01-25T07:30:27.920Z,101760.34
2019-01-25T07:32:59.630Z,101756.65
2019-01-25T07:35:31.766Z,101758.34
2019-01-25T07:38:03.522Z,101753.72
2019-01-25T07:40:35.235Z,101749.52
2019-01-25T07:43:06.920Z,101750.31
2019-01-25T07:45:38.624Z,101755.70
2019-01-25T07:48:10.324Z,101762.23
2019-01-25T07:50:43.584Z,101765.52
2019-01-25T07:53:15.314Z,101759.17
2019-01-25T07:55:46.985Z,101758.45
2019-01-25T07:58:18.726Z,101761.58
2019-01-25T08:00:51.290Z,101758.94
2019-01-25T08:03:23.580Z,101760.77
2019-01-25T08:05:55.358Z,101762.77
2019-01-25T08:08:27.215Z,101760.13
2019-01-25T08:10:58.926Z,101688.36
2019-01-25T08:13:30.677Z,101763.41
2019-01-25T08:16:02.643Z,101757.63
2019-01-25T08:18:35.207Z,101709.48
2019-01-25T08:21:06.956Z,101763.98
2019-01-25T08:23:39.518Z,101752.00
2019-01-25T08:26:11.326Z,101750.39
2019-01-25T08:28:43.102Z,101749.27
2019-01-25T08:31:15.197Z,101748.40
2019-01-25T08:33:46.879Z,101744.55
2019-01-25T08:36:18.894Z,101738.17
2019-01-25T08:38:50.640Z,101734.97
2019-01-25T08:41:22.352Z,101735.30
2019-01-25T08:43:54.282Z,101731.13
2019-01-25T08:46:25.993Z,101738.52
2019-01-25T08:48:57.691Z,101745.25
2019-01-25T08:51:29.461Z,101742.69
2019-01-25T08:54:01.154Z,101742.20
2019-01-25T08:56:32.815Z,101737.47
2019-01-25T08:59:04.874Z,101735.69
2019-01-25T09:01:36.580Z,101727.31
2019-01-25T09:04:08.265Z,101736.44
2019-01-25T09:06:39.941Z,101733.38
2019-01-25T09:09:11.652Z,101730.55
2019-01-25T09:11:43.743Z,101729.75
2019-01-25T09:14:15.429Z,101742.53
2019-01-25T09:16:47.114Z,101699.62
2019-01-25T09:19:18.831Z,101758.38
2019-01-25T09:21:50.774Z,101766.24
2019-01-25T09:24:22.458Z,101764.30
2019-01-25T09:26:54.468Z,101766.72
2019-01-25T09:29:26.147Z,101762.53
2019-01-25T09:31:57.848Z,101755.95
2019-01-25T09:34:29.539Z,101758.69
2019-01-25T09:37:01.452Z,101760.77
2019-01-25T09:39:33.122Z,101698.22
2019-01-25T09:42:04.834Z,101743.50
2019-01-25T09:44:36.516Z,101741.65
2019-01-25T09:47:08.200Z,101694.23
2019-01-25T09:49:39.895Z,101742.52
2019-01-25T09:52:11.570Z,101740.27
2019-01-25T09:54:43.246Z,101679.50
2019-01-25T09:57:15.287Z,101736.56
2019-01-25T09:59:46.987Z,101744.12
2019-01-25T10:02:18.685Z,101741.77
2019-01-25T10:04:50.390Z,101738.75
2019-01-25T10:07:22.069Z,101742.20
2019-01-25T10:09:53.776Z,101735.13
2019-01-25T10:12:25.457Z,101735.70
2019-01-25T10:14:57.184Z,101743.82
2019-01-25T10:17:28.876Z,101730.06
2019-01-25T10:20:00.579Z,101726.84
2019-01-25T10:22:32.272Z,101734.20
2019-01-25T10:25:05.807Z,101726.05
2019-01-25T10:27:37.496Z,101715.41
2019-01-25T10:30:16.545Z,101722.79
2019-01-25T10:32:48.414Z,101719.08
2019-01-25T10:35:20.240Z,101719.95
2019-01-25T10:37:52.932Z,101697.73
2019-01-25T10:40:25.535Z,101715.86
2019-01-25T10:42:57.221Z,101716.45
2019-01-25T10:45:39.443Z,101716.05
2019-01-25T10:48:11.880Z,101712.82
2019-01-25T10:50:43.881Z,101720.60
2019-01-25T10:53:15.590Z,101718.52
2019-01-25T10:55:47.818Z,101720.92
2019-01-25T10:58:19.569Z,101720.84
2019-01-25T11:00:51.456Z,101714.65
2019-01-25T11:03:23.297Z,101717.05
2019-01-25T11:05:55.025Z,101719.47
2019-01-25T11:08:26.805Z,101719.64
2019-01-25T11:10:58.488Z,101709.52
2019-01-25T11:13:30.355Z,101696.64
2019-01-25T11:16:02.171Z,101693.03
2019-01-25T11:18:34.412Z,101684.58
2019-01-25T11:21:06.091Z,101677.79
2019-01-25T11:23:37.795Z,101682.33
2019-01-25T11:26:09.493Z,101678.06
2019-01-25T11:28:41.170Z,101675.42
2019-01-25T11:31:13.141Z,101677.65
2019-01-25T11:33:44.823Z,101669.84
2019-01-25T11:36:16.517Z,101673.86
2019-01-25T11:38:48.476Z,101667.75
2019-01-25T11:41:20.165Z,101665.73
2019-01-25T11:43:51.886Z,101664.05
2019-01-25T11:46:23.645Z,101662.27
2019-01-25T11:48:55.956Z,101657.28
2019-01-25T11:51:27.685Z,101651.47
2019-01-25T11:53:59.350Z,101652.09
2019-01-25T11:56:31.311Z,101656.22
2019-01-25T11:59:03.145Z,101649.29
2019-01-25T12:01:35.624Z,101647.11
2019-01-25T12:04:07.828Z,101648.34
2019-01-25T12:06:39.524Z,101647.37
2019-01-25T12:09:11.547Z,101642.95
2019-01-25T12:11:43.273Z,101642.30
2019-01-25T12:14:15.042Z,101642.62
2019-01-25T12:16:46.723Z,101639.95
2019-01-25T12:19:18.412Z,101641.28
2019-01-25T12:21:50.115Z,101637.41
2019-01-25T12:24:21.974Z,101638.05
2019-01-25T12:26:53.932Z,101637.67
2019-01-25T12:29:25.745Z,101635.09
2019-01-25T12:31:57.763Z,101634.60
2019-01-25T12:34:29.454Z,101613.39
2019-01-25T12:37:04.707Z,101629.41
2019-01-25T12:39:34.847Z,101622.91
2019-01-25T12:42:06.550Z,101620.26
2019-01-25T12:44:38.367Z,101612.95
2019-01-25T12:47:10.312Z,101618.09
2019-01-25T12:49:42.057Z,101619.05
2019-01-25T12:52:13.764Z,101623.71
2019-01-25T12:54:45.546Z,101619.94
2019-01-25T12:57:17.500Z,101623.79
2019-01-25T12:59:49.240Z,101623.06
2019-01-25T13:02:21.538Z,101612.09
2019-01-25T13:04:53.227Z,101610.58
2019-01-25T13:07:25.600Z,101612.73
2019-01-25T13:09:57.325Z,101612.73
2019-01-25T13:12:29.018Z,101613.53
2019-01-25T13:15:02.353Z,101617.25
2019-01-25T13:17:34.032Z,101613.31
2019-01-25T13:20:10.602Z,101612.50
2019-01-25T13:22:42.394Z,101614.36
2019-01-25T13:25:14.101Z,101619.60
2019-01-25T13:27:45.892Z,101621.38
2019-01-25T13:30:21.561Z,101615.41
2019-01-25T13:32:53.603Z,101612.78
2019-01-25T13:35:25.287Z,101607.53
2019-01-25T13:37:57.047Z,101605.30
2019-01-25T13:40:29.473Z,101607.72
2019-01-25T13:43:01.161Z,101603.61
2019-01-25T13:45:32.844Z,101600.17
2019-01-25T13:48:04.545Z,101600.00
2019-01-25T13:50:37.239Z,101590.91
2019-01-25T13:53:08.931Z,101586.98
2019-01-25T13:55:40.629Z,101591.56
2019-01-25T13:58:12.323Z,101585.38
2019-01-25T14:00:44.580Z,101575.41
2019-01-25T14:03:16.269Z,101576.43
2019-01-25T14:05:47.947Z,101574.55
2019-01-25T14:08:21.437Z,101579.28
2019-01-25T14:10:53.243Z,101569.98
2019-01-25T14:13:24.934Z,101578.27
2019-01-25T14:15:57.113Z,101574.80
2019-01-25T14:18:28.819Z,101589.58
2019-01-25T14:21:00.503Z,101590.91
2019-01-25T14:23:32.211Z,101591.78
2019-01-25T14:26:03.962Z,101589.80
2019-01-25T14:28:35.669Z,101594.22
2019-01-25T14:31:07.685Z,101586.76
2019-01-25T14:33:39.814Z,101590.50
2019-01-25T14:36:11.511Z,101593.64
2019-01-25T14:38:43.224Z,101588.74
2019-01-25T14:41:15.189Z,101593.42
2019-01-25T14:43:54.232Z,101589.08
2019-01-25T14:46:20.588Z,101590.62
2019-01-25T14:48:53.925Z,101583.38
2019-01-25T14:51:25.604Z,101578.30
2019-01-25T14:53:57.320Z,101579.83
2019-01-25T14:56:29.313Z,101573.31
2019-01-25T14:59:01.190Z,101571.40
2019-01-25T15:01:33.145Z,101575.48
2019-01-25T15:04:04.888Z,101572.12
2019-01-25T15:06:36.821Z,101575.98
2019-01-25T15:09:09.890Z,101579.69
2019-01-25T15:11:41.574Z,101577.02
2019-01-25T15:14:13.296Z,101580.78
2019-01-25T15:16:45.054Z,101579.52
2019-01-25T15:19:16.745Z,101583.08
2019-01-25T15:21:48.762Z,101583.66
2019-01-25T15:24:20.512Z,101579.95
2019-01-25T15:26:52.189Z,101581.08
2019-01-25T15:29:23.879Z,101582.20
2019-01-25T15:31:55.560Z,101579.70
2019-01-25T15:34:27.291Z,101587.36
2019-01-25T15:36:58.991Z,101581.81
2019-01-25T15:39:30.729Z,101575.24
2019-01-25T15:42:02.479Z,101574.45
2019-01-25T15:44:34.178Z,101574.55
2019-01-25T15:47:05.848Z,101572.61
2019-01-25T15:49:37.555Z,101569.31
2019-01-25T15:52:09.245Z,101571.95
2019-01-25T15:54:41.075Z,101567.12
2019-01-25T15:57:13.021Z,101561.47
2019-01-25T15:59:44.795Z,101495.98
2019-01-25T16:02:16.777Z,101541.06
2019-01-25T16:04:48.464Z,101550.03
2019-01-25T16:07:20.669Z,101550.26
2019-01-25T16:09:52.364Z,101545.30
2019-01-25T16:12:24.044Z,101544.27
2019-01-25T16:14:55.988Z,101537.34
2019-01-25T16:17:27.886Z,101537.76
2019-01-25T16:19:59.587Z,101539.30
2019-01-25T16:22:31.306Z,101538.73
2019-01-25T16:25:03.090Z,101533.20
2019-01-25T16:27:35.082Z,101523.23
2019-01-25T16:30:14.346Z,101522.27
2019-01-25T16:32:46.085Z,101520.82
2019-01-25T16:35:17.789Z,101517.41
2019-01-25T16:37:49.463Z,101520.82
2019-01-25T16:40:27.946Z,101510.69
2019-01-25T16:43:00.196Z,101506.88
2019-01-25T16:45:40.556Z,101507.06
2019-01-25T16:48:12.288Z,101503.78
2019-01-25T16:50:43.955Z,101497.33
2019-01-25T16:53:15.673Z,101493.48
2019-01-25T16:55:47.352Z,101497.09
2019-01-25T16:58:19.038Z,101490.66
2019-01-25T17:00:50.985Z,101489.91
2019-01-25T17:03:22.679Z,101487.59
2019-01-25T17:05:54.426Z,101485.72
2019-01-25T17:08:26.469Z,101476.09
2019-01-25T17:10:58.153Z,101472.89
2019-01-25T17:13:29.973Z,101467.73
2019-01-25T17:16:01.654Z,101459.98
2019-01-25T17:18:33.434Z,101453.18
2019-01-25T17:21:05.215Z,101454.82
2019-01-25T17:23:37.232Z,101452.89
2019-01-25T17:26:08.930Z,101448.23
2019-01-25T17:28:40.616Z,101444.84
2019-01-25T17:31:12.326Z,101448.78
2019-01-25T17:33:44.369Z,101442.61
2019-01-25T17:36:16.131Z,101445.52
2019-01-25T17:38:47.827Z,101437.23
2019-01-25T17:41:19.515Z,101437.84
2019-01-25T17:43:51.206Z,101435.69
2019-01-25T17:46:22.886Z,101432.88
2019-01-25T17:48:54.649Z,101425.15
2019-01-25T17:51:27.279Z,101414.65
2019-01-25T17:53:59.221Z,101407.80
2019-01-25T17:56:30.916Z,101408.81
2019-01-25T17:59:02.625Z,101400.53
2019-01-25T18:01:34.308Z,101392.58
2019-01-25T18:04:06.009Z,101383.59
2019-01-25T18:06:37.697Z,101379.91
2019-01-25T18:09:09.408Z,101375.24
2019-01-25T18:11:41.082Z,101371.69
2019-01-25T18:14:12.779Z,101365.36
2019-01-25T18:16:44.459Z,101355.30
2019-01-25T18:19:16.148Z,101359.24
2019-01-25T18:21:47.833Z,101356.94
2019-01-25T18:24:19.852Z,101352.64
2019-01-25T18:26:51.538Z,101359.97
2019-01-25T18:29:23.302Z,101354.08
2019-01-25T18:31:54.990Z,101338.69
2019-01-25T18:34:26.679Z,101341.40
2019-01-25T18:36:58.364Z,101335.45
2019-01-25T18:39:30.062Z,101332.04
2019-01-25T18:42:01.749Z,101331.73
2019-01-25T18:44:33.435Z,101329.48
2019-01-25T18:47:05.188Z,101329.14
2019-01-25T18:49:36.891Z,101334.93
2019-01-25T18:52:08.567Z,101334.70
2019-01-25T18:54:40.262Z,101331.97
2019-01-25T18:57:11.937Z,101324.66
2019-01-25T18:59:44.584Z,101317.11
2019-01-25T19:02:17.688Z,101313.45
2019-01-25T19:04:49.376Z,101311.51
2019-01-25T19:07:21.064Z,101310.45
2019-01-25T19:09:52.764Z,101306.00
2019-01-25T19:12:24.510Z,101305.70
2019-01-25T19:14:56.472Z,101307.51
2019-01-25T19:17:29.158Z,101299.91
2019-01-25T19:20:00.863Z,101298.31
2019-01-25T19:22:32.553Z,101296.52
2019-01-25T19:25:06.878Z,101290.97
2019-01-25T19:27:38.643Z,101289.76
2019-01-25T19:30:18.196Z,101289.44
2019-01-25T19:32:51.167Z,101282.14
2019-01-25T19:35:22.841Z,101275.94
2019-01-25T19:37:54.900Z,101274.80
2019-01-25T19:40:33.424Z,101268.75
2019-01-25T19:43:06.314Z,101262.98
2019-01-25T19:45:37.998Z,101257.27
2019-01-25T19:48:09.743Z,101256.87
2019-01-25T19:50:41.445Z,101246.48
2019-01-25T19:53:16.806Z,101247.37
2019-01-25T19:55:48.496Z,101249.50
2019-01-25T19:58:20.196Z,101246.75
2019-01-25T20:00:51.975Z,101242.80
2019-01-25T20:03:23.729Z,101235.48
2019-01-25T20:05:55.480Z,101237.69
2019-01-25T20:08:27.238Z,101232.36
2019-01-25T20:10:58.918Z,101219.58
2019-01-25T20:13:31.443Z,101214.58
2019-01-25T20:16:03.134Z,101206.77
2019-01-25T20:18:34.891Z,101202.23
2019-01-25T20:21:06.583Z,101201.44
2019-01-25T20:23:39.151Z,101188.30
2019-01-25T20:26:10.825Z,101189.54
2019-01-25T20:28:42.579Z,101184.93
2019-01-25T20:31:14.270Z,101176.63
2019-01-25T20:33:46.021Z,101180.95
2019-01-25T20:36:17.707Z,101176.84
2019-01-25T20:38:49.698Z,101171.92
2019-01-25T20:41:21.653Z,101166.00
2019-01-25T20:43:53.326Z,101160.33
2019-01-25T20:46:25.278Z,101153.26
2019-01-25T20:48:56.958Z,101149.28
2019-01-25T20:51:28.658Z,101149.47
2019-01-25T20:54:00.411Z,101141.45
2019-01-25T20:56:32.126Z,101134.94
2019-01-25T20:59:03.819Z,101126.46
2019-01-25T21:01:35.507Z,101121.72
2019-01-25T21:04:08.306Z,101116.69
2019-01-25T21:06:40.090Z,101106.02
2019-01-25T21:09:11.834Z,101092.32
2019-01-25T21:11:43.548Z,101078.05
2019-01-25T21:14:15.654Z,101070.97
2019-01-25T21:16:47.347Z,101071.03
2019-01-25T21:19:19.022Z,101074.97
2019-01-25T21:21:50.716Z,101080.38
2019-01-25T21:24:22.389Z,101078.95
2019-01-25T21:26:54.096Z,101067.80
2019-01-25T21:29:25.808Z,101050.16
2019-01-25T21:31:57.553Z,101059.63
2019-01-25T21:34:29.336Z,101063.88
2019-01-25T21:37:01.681Z,101057.87
2019-01-25T21:39:35.031Z,101059.34
2019-01-25T21:42:06.698Z,101059.55
2019-01-25T21:44:38.463Z,101046.61
2019-01-25T21:47:10.563Z,101041.48
2019-01-25T21:49:42.303Z,101036.58
2019-01-25T21:52:13.980Z,101029.20
2019-01-25T21:54:45.671Z,101022.33
2019-01-25T21:57:17.385Z,101023.33
2019-01-25T21:59:49.083Z,101011.81
2019-01-25T22:02:20.793Z,101002.71
2019-01-25T22:04:52.521Z,101001.52
2019-01-25T22:07:24.572Z,100990.34
2019-01-25T22:09:56.605Z,100985.45
2019-01-25T22:12:28.560Z,100981.59
2019-01-25T22:15:00.250Z,100974.38
2019-01-25T22:17:32.310Z,100959.42
2019-01-25T22:20:07.455Z,100969.09
2019-01-25T22:22:39.500Z,100964.06
2019-01-25T22:25:12.632Z,100959.55
2019-01-25T22:27:46.433Z,100962.52
2019-01-25T22:30:21.253Z,100955.06
2019-01-25T22:32:52.936Z,100955.23
2019-01-25T22:35:25.048Z,100947.45
2019-01-25T22:37:56.768Z,100941.98
2019-01-25T22:40:30.437Z,100938.91
2019-01-25T22:43:02.470Z,100940.09
2019-01-25T22:45:34.159Z,100931.88
2019-01-25T22:48:05.843Z,100931.24
2019-01-25T22:50:37.536Z,100932.06
2019-01-25T22:53:09.230Z,100924.70
2019-01-25T22:55:40.911Z,100915.13
2019-01-25T22:58:12.623Z,100913.63
2019-01-25T23:01:00.431Z,100909.34
2019-01-25T23:03:51.647Z,100910.72
2019-01-25T23:06:40.124Z,100903.99
2019-01-25T23:09:17.048Z,100887.85
2019-01-25T23:11:49.175Z,100891.91
2019-01-25T23:14:21.133Z,100879.53
2019-01-25T23:16:52.820Z,100868.85
2019-01-25T23:19:24.505Z,100867.45
2019-01-25T23:21:56.328Z,100869.69
2019-01-25T23:24:27.990Z,100865.49
2019-01-25T23:26:59.780Z,100857.31
2019-01-25T23:29:31.476Z,100850.22
2019-01-25T23:32:03.946Z,100845.30
2019-01-25T23:34:36.058Z,100841.34
2019-01-25T23:37:07.812Z,100835.56
2019-01-25T23:39:39.502Z,100821.53
2019-01-25T23:42:11.672Z,100814.64
2019-01-25T23:44:43.356Z,100822.88
2019-01-25T23:47:15.059Z,100826.32
2019-01-25T23:49:46.737Z,100808.19
2019-01-25T23:52:18.443Z,100799.09
2019-01-25T23:54:50.152Z,100792.66
2019-01-25T23:57:22.146Z,100782.99
2019-01-25T23:59:53.840Z,100780.12
